sensor_id;sensor_type;location;lat;lon;timestamp;P1;durP1;ratioP1;P2;durP2;ratioP2
59410;SDS011;45215;32.610;-115.482;2022-09-13T00:00:58;2.10;;;1.95;;
59410;SDS011;45215;32.610;-115.482;2022-09-13T00:03:25;1.77;;;1.40;;
59410;SDS011;45215;32.610;-115.482;2022-09-13T00:05:52;1.67;;;1.58;;
59410;SDS011;45215;32.610;-115.482;2022-09-13T00:08:18;1.70;;;1.60;;
59410;SDS011;45215;32.610;-115.482;2022-09-13T00:10:45;1.70;;;1.60;;
59410;SDS011;45215;32.610;-115.482;2022-09-13T00:13:12;1.50;;;1.40;;
59410;SDS011;45215;32.610;-115.482;2022-09-13T00:15:43;2.22;;;1.70;;
59410;SDS011;45215;32.610;-115.482;2022-09-13T00:18:14;1.80;;;1.70;;
59410;SDS011;45215;32.610;-115.482;2022-09-13T00:20:41;1.70;;;1.60;;
59410;SDS011;45215;32.610;-115.482;2022-09-13T00:23:07;2.42;;;1.65;;
59410;SDS011;45215;32.610;-115.482;2022-09-13T00:25:33;1.75;;;1.65;;
59410;SDS011;45215;32.610;-115.482;2022-09-13T00:28:00;1.92;;;1.83;;
59410;SDS011;45215;32.610;-115.482;2022-09-13T00:30:26;1.60;;;1.50;;
59410;SDS011;45215;32.610;-115.482;2022-09-13T00:32:52;1.60;;;1.50;;
59410;SDS011;45215;32.610;-115.482;2022-09-13T00:35:19;1.70;;;1.60;;
59410;SDS011;45215;32.610;-115.482;2022-09-13T00:37:45;1.60;;;1.50;;
59410;SDS011;45215;32.610;-115.482;2022-09-13T00:40:12;1.70;;;1.60;;
59410;SDS011;45215;32.610;-115.482;2022-09-13T00:42:38;2.00;;;1.80;;
59410;SDS011;45215;32.610;-115.482;2022-09-13T00:47:41;1.88;;;1.77;;
59410;SDS011;45215;32.610;-115.482;2022-09-13T00:50:14;2.38;;;1.40;;
59410;SDS011;45215;32.610;-115.482;2022-09-13T00:53:00;1.98;;;1.77;;
59410;SDS011;45215;32.610;-115.482;2022-09-13T00:55:36;1.75;;;1.65;;
59410;SDS011;45215;32.610;-115.482;2022-09-13T00:58:09;2.45;;;2.13;;
59410;SDS011;45215;32.610;-115.482;2022-09-13T01:00:40;1.60;;;1.50;;
59410;SDS011;45215;32.610;-115.482;2022-09-13T01:03:07;2.55;;;1.60;;
59410;SDS011;45215;32.610;-115.482;2022-09-13T01:05:55;1.63;;;1.52;;
59410;SDS011;45215;32.610;-115.482;2022-09-13T01:08:25;1.77;;;1.67;;
59410;SDS011;45215;32.610;-115.482;2022-09-13T01:10:55;2.03;;;1.63;;
59410;SDS011;45215;32.610;-115.482;2022-09-13T01:13:31;2.17;;;1.77;;
59410;SDS011;45215;32.610;-115.482;2022-09-13T01:15:59;1.92;;;1.83;;
59410;SDS011;45215;32.610;-115.482;2022-09-13T01:18:25;2.50;;;1.80;;
59410;SDS011;45215;32.610;-115.482;2022-09-13T01:29:13;2.13;;;1.92;;
59410;SDS011;45215;32.610;-115.482;2022-09-13T01:32:47;3.08;;;2.10;;
59410;SDS011;45215;32.610;-115.482;2022-09-13T01:35:22;2.08;;;1.90;;
59410;SDS011;45215;32.610;-115.482;2022-09-13T01:49:54;1.70;;;1.60;;
59410;SDS011;45215;32.610;-115.482;2022-09-13T01:52:47;4.45;;;2.10;;
59410;SDS011;45215;32.610;-115.482;2022-09-13T01:58:26;2.42;;;1.73;;
59410;SDS011;45215;32.610;-115.482;2022-09-13T02:01:15;2.20;;;1.63;;
59410;SDS011;45215;32.610;-115.482;2022-09-13T02:07:35;2.78;;;1.90;;
59410;SDS011;45215;32.610;-115.482;2022-09-13T02:09:46;2.95;;;1.50;;
59410;SDS011;45215;32.610;-115.482;2022-09-13T02:14:50;18.42;;;2.60;;
59410;SDS011;45215;32.610;-115.482;2022-09-13T02:17:26;10.15;;;2.03;;
59410;SDS011;45215;32.610;-115.482;2022-09-13T02:19:57;5.03;;;1.63;;
59410;SDS011;45215;32.610;-115.482;2022-09-13T02:22:30;10.50;;;1.77;;
59410;SDS011;45215;32.610;-115.482;2022-09-13T02:25:11;3.45;;;1.63;;
59410;SDS011;45215;32.610;-115.482;2022-09-13T02:27:40;4.55;;;1.98;;
59410;SDS011;45215;32.610;-115.482;2022-09-13T02:30:12;4.72;;;1.73;;
59410;SDS011;45215;32.610;-115.482;2022-09-13T02:32:48;2.88;;;1.50;;
59410;SDS011;45215;32.610;-115.482;2022-09-13T02:38:03;3.17;;;1.63;;
59410;SDS011;45215;32.610;-115.482;2022-09-13T02:40:36;2.55;;;1.63;;
59410;SDS011;45215;32.610;-115.482;2022-09-13T02:43:09;2.05;;;1.50;;
59410;SDS011;45215;32.610;-115.482;2022-09-13T02:45:41;2.95;;;1.60;;
59410;SDS011;45215;32.610;-115.482;2022-09-13T02:48:22;1.90;;;1.55;;
59410;SDS011;45215;32.610;-115.482;2022-09-13T02:51:08;2.10;;;1.25;;
59410;SDS011;45215;32.610;-115.482;2022-09-13T02:56:53;6.22;;;1.90;;
59410;SDS011;45215;32.610;-115.482;2022-09-13T02:59:23;2.33;;;1.40;;
59410;SDS011;45215;32.610;-115.482;2022-09-13T03:01:58;3.35;;;1.77;;
59410;SDS011;45215;32.610;-115.482;2022-09-13T03:04:57;3.05;;;1.50;;
59410;SDS011;45215;32.610;-115.482;2022-09-13T03:07:25;3.78;;;1.65;;
59410;SDS011;45215;32.610;-115.482;2022-09-13T03:09:58;3.65;;;1.77;;
59410;SDS011;45215;32.610;-115.482;2022-09-13T03:23:34;3.17;;;1.50;;
59410;SDS011;45215;32.610;-115.482;2022-09-13T03:26:24;1.73;;;1.30;;
59410;SDS011;45215;32.610;-115.482;2022-09-13T03:34:10;4.22;;;1.30;;
59410;SDS011;45215;32.610;-115.482;2022-09-13T03:36:44;4.18;;;1.33;;
59410;SDS011;45215;32.610;-115.482;2022-09-13T03:42:06;5.10;;;1.40;;
59410;SDS011;45215;32.610;-115.482;2022-09-13T03:44:43;2.03;;;1.40;;
59410;SDS011;45215;32.610;-115.482;2022-09-13T03:47:12;13.85;;;2.13;;
59410;SDS011;45215;32.610;-115.482;2022-09-13T03:49:40;1.88;;;1.50;;
59410;SDS011;45215;32.610;-115.482;2022-09-13T03:52:07;3.90;;;1.60;;
59410;SDS011;45215;32.610;-115.482;2022-09-13T03:54:35;3.25;;;1.60;;
59410;SDS011;45215;32.610;-115.482;2022-09-13T03:59:45;2.95;;;1.45;;
59410;SDS011;45215;32.610;-115.482;2022-09-13T04:02:13;3.85;;;1.55;;
59410;SDS011;45215;32.610;-115.482;2022-09-13T04:04:41;2.22;;;1.50;;
59410;SDS011;45215;32.610;-115.482;2022-09-13T04:07:09;4.05;;;1.58;;
59410;SDS011;45215;32.610;-115.482;2022-09-13T04:09:36;3.75;;;1.48;;
59410;SDS011;45215;32.610;-115.482;2022-09-13T04:12:03;2.10;;;1.55;;
59410;SDS011;45215;32.610;-115.482;2022-09-13T04:14:30;2.22;;;1.30;;
59410;SDS011;45215;32.610;-115.482;2022-09-13T04:16:57;3.60;;;1.48;;
59410;SDS011;45215;32.610;-115.482;2022-09-13T04:19:24;1.98;;;1.30;;
59410;SDS011;45215;32.610;-115.482;2022-09-13T04:21:51;1.48;;;1.27;;
59410;SDS011;45215;32.610;-115.482;2022-09-13T04:24:18;1.45;;;1.20;;
59410;SDS011;45215;32.610;-115.482;2022-09-13T04:26:48;1.75;;;1.30;;
59410;SDS011;45215;32.610;-115.482;2022-09-13T04:29:16;1.40;;;1.30;;
59410;SDS011;45215;32.610;-115.482;2022-09-13T04:31:43;2.13;;;1.30;;
59410;SDS011;45215;32.610;-115.482;2022-09-13T04:34:10;1.77;;;1.20;;
59410;SDS011;45215;32.610;-115.482;2022-09-13T04:36:37;1.33;;;1.10;;
59410;SDS011;45215;32.610;-115.482;2022-09-13T04:39:04;2.00;;;1.30;;
59410;SDS011;45215;32.610;-115.482;2022-09-13T04:41:30;2.30;;;1.30;;
59410;SDS011;45215;32.610;-115.482;2022-09-13T04:44:01;1.23;;;1.00;;
59410;SDS011;45215;32.610;-115.482;2022-09-13T04:46:28;1.63;;;1.10;;
59410;SDS011;45215;32.610;-115.482;2022-09-13T04:48:54;1.60;;;1.15;;
59410;SDS011;45215;32.610;-115.482;2022-09-13T04:51:20;3.08;;;1.15;;
59410;SDS011;45215;32.610;-115.482;2022-09-13T04:53:53;1.45;;;1.00;;
59410;SDS011;45215;32.610;-115.482;2022-09-13T04:56:21;3.17;;;1.13;;
59410;SDS011;45215;32.610;-115.482;2022-09-13T04:58:50;5.22;;;1.10;;
59410;SDS011;45215;32.610;-115.482;2022-09-13T05:01:19;2.35;;;1.00;;
59410;SDS011;45215;32.610;-115.482;2022-09-13T05:03:46;4.47;;;1.20;;
59410;SDS011;45215;32.610;-115.482;2022-09-13T05:06:13;5.78;;;3.92;;
59410;SDS011;45215;32.610;-115.482;2022-09-13T05:08:44;20.67;;;8.27;;
59410;SDS011;45215;32.610;-115.482;2022-09-13T05:11:15;25.88;;;9.80;;
59410;SDS011;45215;32.610;-115.482;2022-09-13T05:13:41;29.50;;;11.25;;
59410;SDS011;45215;32.610;-115.482;2022-09-13T05:16:07;23.63;;;10.05;;
59410;SDS011;45215;32.610;-115.482;2022-09-13T05:18:34;23.10;;;9.70;;
59410;SDS011;45215;32.610;-115.482;2022-09-13T05:21:02;19.58;;;9.20;;
59410;SDS011;45215;32.610;-115.482;2022-09-13T05:23:29;18.05;;;8.60;;
59410;SDS011;45215;32.610;-115.482;2022-09-13T05:26:01;14.63;;;7.88;;
59410;SDS011;45215;32.610;-115.482;2022-09-13T05:28:30;15.45;;;7.65;;
59410;SDS011;45215;32.610;-115.482;2022-09-13T05:31:02;19.55;;;7.68;;
59410;SDS011;45215;32.610;-115.482;2022-09-13T05:33:31;11.93;;;5.82;;
59410;SDS011;45215;32.610;-115.482;2022-09-13T05:36:00;11.98;;;5.85;;
59410;SDS011;45215;32.610;-115.482;2022-09-13T05:38:27;11.52;;;5.50;;
59410;SDS011;45215;32.610;-115.482;2022-09-13T05:40:56;10.75;;;5.05;;
59410;SDS011;45215;32.610;-115.482;2022-09-13T05:43:24;10.90;;;5.30;;
59410;SDS011;45215;32.610;-115.482;2022-09-13T05:46:11;8.50;;;4.43;;
59410;SDS011;45215;32.610;-115.482;2022-09-13T05:48:40;8.65;;;4.68;;
59410;SDS011;45215;32.610;-115.482;2022-09-13T05:51:07;8.43;;;4.10;;
59410;SDS011;45215;32.610;-115.482;2022-09-13T05:53:36;7.75;;;4.10;;
59410;SDS011;45215;32.610;-115.482;2022-09-13T05:56:10;6.07;;;3.30;;
59410;SDS011;45215;32.610;-115.482;2022-09-13T05:58:38;8.00;;;3.70;;
59410;SDS011;45215;32.610;-115.482;2022-09-13T06:01:10;7.65;;;3.90;;
59410;SDS011;45215;32.610;-115.482;2022-09-13T06:03:37;6.65;;;3.47;;
59410;SDS011;45215;32.610;-115.482;2022-09-13T06:06:04;5.72;;;2.88;;
59410;SDS011;45215;32.610;-115.482;2022-09-13T06:08:31;6.68;;;3.20;;
59410;SDS011;45215;32.610;-115.482;2022-09-13T06:11:03;6.85;;;2.92;;
59410;SDS011;45215;32.610;-115.482;2022-09-13T06:13:34;6.22;;;2.80;;
59410;SDS011;45215;32.610;-115.482;2022-09-13T06:16:02;5.10;;;2.85;;
59410;SDS011;45215;32.610;-115.482;2022-09-13T06:18:30;5.72;;;2.90;;
59410;SDS011;45215;32.610;-115.482;2022-09-13T06:20:58;3.97;;;2.55;;
59410;SDS011;45215;32.610;-115.482;2022-09-13T06:23:28;3.75;;;2.60;;
59410;SDS011;45215;32.610;-115.482;2022-09-13T06:26:00;3.95;;;2.40;;
59410;SDS011;45215;32.610;-115.482;2022-09-13T06:28:27;4.70;;;2.20;;
59410;SDS011;45215;32.610;-115.482;2022-09-13T06:31:03;3.42;;;2.28;;
59410;SDS011;45215;32.610;-115.482;2022-09-13T06:33:32;3.53;;;2.30;;
59410;SDS011;45215;32.610;-115.482;2022-09-13T06:35:59;4.32;;;2.30;;
59410;SDS011;45215;32.610;-115.482;2022-09-13T06:38:27;4.10;;;2.35;;
59410;SDS011;45215;32.610;-115.482;2022-09-13T06:41:00;3.72;;;2.22;;
59410;SDS011;45215;32.610;-115.482;2022-09-13T06:43:28;3.95;;;2.22;;
59410;SDS011;45215;32.610;-115.482;2022-09-13T06:46:02;4.43;;;2.33;;
59410;SDS011;45215;32.610;-115.482;2022-09-13T06:48:34;3.97;;;2.00;;
59410;SDS011;45215;32.610;-115.482;2022-09-13T06:51:05;3.70;;;1.88;;
59410;SDS011;45215;32.610;-115.482;2022-09-13T06:53:33;2.88;;;1.92;;
59410;SDS011;45215;32.610;-115.482;2022-09-13T06:58:31;2.35;;;1.50;;
59410;SDS011;45215;32.610;-115.482;2022-09-13T07:03:39;3.10;;;1.88;;
59410;SDS011;45215;32.610;-115.482;2022-09-13T07:06:10;3.00;;;1.90;;
59410;SDS011;45215;32.610;-115.482;2022-09-13T07:08:38;2.92;;;1.83;;
59410;SDS011;45215;32.610;-115.482;2022-09-13T07:11:06;2.10;;;1.58;;
59410;SDS011;45215;32.610;-115.482;2022-09-13T07:13:33;2.17;;;1.50;;
59410;SDS011;45215;32.610;-115.482;2022-09-13T07:16:01;2.63;;;1.60;;
59410;SDS011;45215;32.610;-115.482;2022-09-13T07:18:28;3.22;;;1.73;;
59410;SDS011;45215;32.610;-115.482;2022-09-13T07:24:16;1.60;;;1.30;;
59410;SDS011;45215;32.610;-115.482;2022-09-13T07:26:43;2.20;;;1.70;;
59410;SDS011;45215;32.610;-115.482;2022-09-13T07:29:12;2.28;;;1.60;;
59410;SDS011;45215;32.610;-115.482;2022-09-13T07:31:44;2.75;;;1.58;;
59410;SDS011;45215;32.610;-115.482;2022-09-13T07:36:42;1.90;;;1.40;;
59410;SDS011;45215;32.610;-115.482;2022-09-13T07:39:12;1.25;;;1.05;;
59410;SDS011;45215;32.610;-115.482;2022-09-13T07:41:39;2.53;;;1.60;;
59410;SDS011;45215;32.610;-115.482;2022-09-13T07:44:06;2.15;;;1.63;;
59410;SDS011;45215;32.610;-115.482;2022-09-13T07:46:34;1.77;;;1.40;;
59410;SDS011;45215;32.610;-115.482;2022-09-13T07:49:04;1.77;;;1.30;;
59410;SDS011;45215;32.610;-115.482;2022-09-13T07:51:31;2.00;;;1.40;;
59410;SDS011;45215;32.610;-115.482;2022-09-13T07:54:01;1.67;;;1.30;;
59410;SDS011;45215;32.610;-115.482;2022-09-13T07:56:35;2.17;;;1.48;;
59410;SDS011;45215;32.610;-115.482;2022-09-13T07:59:04;1.65;;;1.30;;
59410;SDS011;45215;32.610;-115.482;2022-09-13T08:01:38;1.77;;;1.20;;
59410;SDS011;45215;32.610;-115.482;2022-09-13T08:04:07;2.45;;;1.33;;
59410;SDS011;45215;32.610;-115.482;2022-09-13T08:06:35;1.27;;;1.10;;
59410;SDS011;45215;32.610;-115.482;2022-09-13T08:12:25;1.50;;;1.30;;
59410;SDS011;45215;32.610;-115.482;2022-09-13T08:14:51;1.80;;;1.30;;
59410;SDS011;45215;32.610;-115.482;2022-09-13T08:17:17;1.17;;;1.08;;
59410;SDS011;45215;32.610;-115.482;2022-09-13T08:19:43;2.35;;;1.30;;
59410;SDS011;45215;32.610;-115.482;2022-09-13T08:22:09;1.90;;;1.23;;
59410;SDS011;45215;32.610;-115.482;2022-09-13T08:24:36;1.73;;;1.40;;
59410;SDS011;45215;32.610;-115.482;2022-09-13T08:27:02;1.90;;;1.30;;
59410;SDS011;45215;32.610;-115.482;2022-09-13T08:29:28;1.95;;;1.20;;
59410;SDS011;45215;32.610;-115.482;2022-09-13T08:31:54;1.30;;;1.20;;
59410;SDS011;45215;32.610;-115.482;2022-09-13T08:34:20;1.60;;;1.30;;
59410;SDS011;45215;32.610;-115.482;2022-09-13T08:36:47;1.85;;;1.30;;
59410;SDS011;45215;32.610;-115.482;2022-09-13T08:39:13;1.40;;;1.27;;
59410;SDS011;45215;32.610;-115.482;2022-09-13T08:49:41;1.45;;;1.20;;
59410;SDS011;45215;32.610;-115.482;2022-09-13T08:54:58;1.33;;;1.23;;
59410;SDS011;45215;32.610;-115.482;2022-09-13T08:57:42;1.58;;;1.30;;
59410;SDS011;45215;32.610;-115.482;2022-09-13T09:06:17;1.65;;;1.40;;
59410;SDS011;45215;32.610;-115.482;2022-09-13T09:08:51;1.85;;;1.50;;
59410;SDS011;45215;32.610;-115.482;2022-09-13T09:17:19;2.65;;;1.45;;
59410;SDS011;45215;32.610;-115.482;2022-09-13T09:19:58;1.52;;;1.42;;
59410;SDS011;45215;32.610;-115.482;2022-09-13T09:25:01;4.93;;;1.90;;
59410;SDS011;45215;32.610;-115.482;2022-09-13T09:27:29;2.15;;;1.65;;
59410;SDS011;45215;32.610;-115.482;2022-09-13T09:29:55;2.72;;;1.80;;
59410;SDS011;45215;32.610;-115.482;2022-09-13T09:35:20;2.20;;;1.83;;
59410;SDS011;45215;32.610;-115.482;2022-09-13T09:40:32;2.03;;;1.75;;
59410;SDS011;45215;32.610;-115.482;2022-09-13T09:43:10;2.75;;;1.92;;
59410;SDS011;45215;32.610;-115.482;2022-09-13T09:45:55;2.33;;;1.77;;
59410;SDS011;45215;32.610;-115.482;2022-09-13T09:48:23;2.30;;;1.98;;
59410;SDS011;45215;32.610;-115.482;2022-09-13T09:50:56;2.35;;;2.05;;
59410;SDS011;45215;32.610;-115.482;2022-09-13T09:53:28;2.10;;;1.90;;
59410;SDS011;45215;32.610;-115.482;2022-09-13T09:56:01;1.77;;;1.63;;
59410;SDS011;45215;32.610;-115.482;2022-09-13T09:58:38;2.03;;;1.80;;
59410;SDS011;45215;32.610;-115.482;2022-09-13T10:01:13;1.90;;;1.70;;
59410;SDS011;45215;32.610;-115.482;2022-09-13T10:06:37;2.67;;;2.08;;
59410;SDS011;45215;32.610;-115.482;2022-09-13T10:09:06;2.42;;;1.92;;
59410;SDS011;45215;32.610;-115.482;2022-09-13T10:11:51;2.20;;;2.00;;
59410;SDS011;45215;32.610;-115.482;2022-09-13T10:19:55;2.20;;;2.00;;
59410;SDS011;45215;32.610;-115.482;2022-09-13T10:22:27;2.42;;;2.00;;
59410;SDS011;45215;32.610;-115.482;2022-09-13T10:24:54;2.22;;;2.03;;
59410;SDS011;45215;32.610;-115.482;2022-09-13T10:27:37;2.50;;;2.05;;
59410;SDS011;45215;32.610;-115.482;2022-09-13T10:33:02;3.83;;;2.08;;
59410;SDS011;45215;32.610;-115.482;2022-09-13T10:35:30;4.18;;;2.15;;
59410;SDS011;45215;32.610;-115.482;2022-09-13T10:37:58;3.67;;;2.10;;
59410;SDS011;45215;32.610;-115.482;2022-09-13T10:40:44;6.47;;;2.10;;
59410;SDS011;45215;32.610;-115.482;2022-09-13T10:43:14;5.25;;;2.15;;
59410;SDS011;45215;32.610;-115.482;2022-09-13T10:45:47;2.25;;;1.92;;
59410;SDS011;45215;32.610;-115.482;2022-09-13T10:48:16;3.50;;;1.70;;
59410;SDS011;45215;32.610;-115.482;2022-09-13T10:53:42;3.80;;;2.17;;
59410;SDS011;45215;32.610;-115.482;2022-09-13T10:56:19;3.20;;;2.00;;
59410;SDS011;45215;32.610;-115.482;2022-09-13T10:58:47;8.32;;;6.35;;
59410;SDS011;45215;32.610;-115.482;2022-09-13T11:07:00;12.52;;;11.30;;
59410;SDS011;45215;32.610;-115.482;2022-09-13T11:12:21;10.90;;;10.02;;
59410;SDS011;45215;32.610;-115.482;2022-09-13T11:15:20;10.27;;;9.27;;
59410;SDS011;45215;32.610;-115.482;2022-09-13T11:20:56;9.40;;;8.63;;
59410;SDS011;45215;32.610;-115.482;2022-09-13T11:23:52;7.85;;;7.25;;
59410;SDS011;45215;32.610;-115.482;2022-09-13T11:32:18;7.38;;;6.78;;
59410;SDS011;45215;32.610;-115.482;2022-09-13T11:56:51;4.90;;;4.50;;
59410;SDS011;45215;32.610;-115.482;2022-09-13T12:02:01;4.35;;;3.95;;
59410;SDS011;45215;32.610;-115.482;2022-09-13T12:04:36;4.65;;;4.20;;
59410;SDS011;45215;32.610;-115.482;2022-09-13T12:07:11;4.70;;;4.30;;
59410;SDS011;45215;32.610;-115.482;2022-09-13T12:09:51;4.43;;;4.03;;
59410;SDS011;45215;32.610;-115.482;2022-09-13T12:12:21;4.00;;;3.60;;
59410;SDS011;45215;32.610;-115.482;2022-09-13T12:14:53;4.50;;;4.03;;
59410;SDS011;45215;32.610;-115.482;2022-09-13T12:17:26;4.25;;;3.92;;
59410;SDS011;45215;32.610;-115.482;2022-09-13T12:19:54;4.32;;;3.92;;
59410;SDS011;45215;32.610;-115.482;2022-09-13T12:22:25;4.28;;;3.88;;
59410;SDS011;45215;32.610;-115.482;2022-09-13T12:24:58;4.32;;;3.63;;
59410;SDS011;45215;32.610;-115.482;2022-09-13T12:27:37;3.80;;;3.50;;
59410;SDS011;45215;32.610;-115.482;2022-09-13T12:30:11;3.95;;;3.65;;
59410;SDS011;45215;32.610;-115.482;2022-09-13T12:32:50;4.00;;;3.60;;
59410;SDS011;45215;32.610;-115.482;2022-09-13T12:35:24;4.30;;;3.90;;
59410;SDS011;45215;32.610;-115.482;2022-09-13T13:05:37;3.28;;;2.97;;
59410;SDS011;45215;32.610;-115.482;2022-09-13T13:13:42;3.55;;;3.25;;
59410;SDS011;45215;32.610;-115.482;2022-09-13T13:18:54;3.28;;;2.97;;
59410;SDS011;45215;32.610;-115.482;2022-09-13T13:26:52;2.83;;;2.63;;
59410;SDS011;45215;32.610;-115.482;2022-09-13T13:29:24;3.13;;;2.83;;
59410;SDS011;45215;32.610;-115.482;2022-09-13T13:34:46;3.05;;;2.80;;
59410;SDS011;45215;32.610;-115.482;2022-09-13T13:39:47;4.20;;;2.90;;
59410;SDS011;45215;32.610;-115.482;2022-09-13T13:42:34;2.80;;;2.58;;
59410;SDS011;45215;32.610;-115.482;2022-09-13T13:45:14;2.90;;;2.60;;
59410;SDS011;45215;32.610;-115.482;2022-09-13T13:48:06;3.00;;;2.70;;
59410;SDS011;45215;32.610;-115.482;2022-09-13T13:53:38;2.58;;;2.38;;
59410;SDS011;45215;32.610;-115.482;2022-09-13T13:56:13;2.95;;;2.40;;
59410;SDS011;45215;32.610;-115.482;2022-09-13T13:58:58;2.30;;;2.10;;
59410;SDS011;45215;32.610;-115.482;2022-09-13T14:01:30;2.50;;;2.30;;
59410;SDS011;45215;32.610;-115.482;2022-09-13T14:09:37;2.47;;;2.28;;
59410;SDS011;45215;32.610;-115.482;2022-09-13T14:12:20;2.25;;;2.05;;
59410;SDS011;45215;32.610;-115.482;2022-09-13T14:18:23;2.60;;;2.40;;
59410;SDS011;45215;32.610;-115.482;2022-09-13T14:21:43;2.50;;;2.30;;
59410;SDS011;45215;32.610;-115.482;2022-09-13T14:24:06;2.17;;;1.98;;
59410;SDS011;45215;32.610;-115.482;2022-09-13T14:26:38;2.25;;;2.00;;
59410;SDS011;45215;32.610;-115.482;2022-09-13T14:29:05;2.50;;;2.30;;
59410;SDS011;45215;32.610;-115.482;2022-09-13T14:31:33;2.60;;;2.30;;
59410;SDS011;45215;32.610;-115.482;2022-09-13T14:34:01;2.35;;;2.15;;
59410;SDS011;45215;32.610;-115.482;2022-09-13T14:36:27;2.38;;;2.17;;
59410;SDS011;45215;32.610;-115.482;2022-09-13T14:38:57;2.47;;;2.28;;
59410;SDS011;45215;32.610;-115.482;2022-09-13T14:41:31;2.30;;;2.10;;
59410;SDS011;45215;32.610;-115.482;2022-09-13T14:44:14;2.33;;;2.13;;
59410;SDS011;45215;32.610;-115.482;2022-09-13T14:46:59;2.63;;;1.73;;
59410;SDS011;45215;32.610;-115.482;2022-09-13T14:49:31;5.45;;;2.50;;
59410;SDS011;45215;32.610;-115.482;2022-09-13T14:52:03;6.43;;;2.83;;
59410;SDS011;45215;32.610;-115.482;2022-09-13T14:54:41;6.65;;;3.30;;
59410;SDS011;45215;32.610;-115.482;2022-09-13T14:57:18;8.77;;;3.60;;
59410;SDS011;45215;32.610;-115.482;2022-09-13T15:00:02;8.88;;;3.60;;
59410;SDS011;45215;32.610;-115.482;2022-09-13T15:02:42;10.55;;;3.55;;
59410;SDS011;45215;32.610;-115.482;2022-09-13T15:05:19;11.95;;;4.03;;
59410;SDS011;45215;32.610;-115.482;2022-09-13T15:08:04;12.33;;;4.30;;
59410;SDS011;45215;32.610;-115.482;2022-09-13T15:11:02;10.50;;;4.70;;
59410;SDS011;45215;32.610;-115.482;2022-09-13T15:13:30;11.57;;;4.85;;
59410;SDS011;45215;32.610;-115.482;2022-09-13T15:15:57;17.13;;;5.25;;
59410;SDS011;45215;32.610;-115.482;2022-09-13T15:18:25;13.93;;;5.00;;
59410;SDS011;45215;32.610;-115.482;2022-09-13T15:20:57;12.10;;;5.32;;
59410;SDS011;45215;32.610;-115.482;2022-09-13T15:26:10;13.68;;;5.00;;
59410;SDS011;45215;32.610;-115.482;2022-09-13T15:31:19;12.63;;;5.38;;
59410;SDS011;45215;32.610;-115.482;2022-09-13T15:33:47;12.88;;;5.88;;
59410;SDS011;45215;32.610;-115.482;2022-09-13T15:41:51;12.43;;;5.63;;
59410;SDS011;45215;32.610;-115.482;2022-09-13T15:44:20;13.25;;;5.68;;
59410;SDS011;45215;32.610;-115.482;2022-09-13T15:46:49;10.85;;;5.55;;
59410;SDS011;45215;32.610;-115.482;2022-09-13T15:49:18;13.60;;;5.63;;
59410;SDS011;45215;32.610;-115.482;2022-09-13T15:51:57;9.68;;;5.30;;
59410;SDS011;45215;32.610;-115.482;2022-09-13T15:54:26;12.10;;;5.68;;
59410;SDS011;45215;32.610;-115.482;2022-09-13T15:57:00;13.70;;;6.22;;
59410;SDS011;45215;32.610;-115.482;2022-09-13T15:59:30;15.13;;;5.60;;
59410;SDS011;45215;32.610;-115.482;2022-09-13T16:01:56;12.15;;;5.40;;
59410;SDS011;45215;32.610;-115.482;2022-09-13T16:04:24;10.88;;;5.47;;
59410;SDS011;45215;32.610;-115.482;2022-09-13T16:06:50;10.05;;;5.18;;
59410;SDS011;45215;32.610;-115.482;2022-09-13T16:09:20;11.48;;;5.75;;
59410;SDS011;45215;32.610;-115.482;2022-09-13T16:11:48;10.48;;;5.32;;
59410;SDS011;45215;32.610;-115.482;2022-09-13T16:14:16;10.27;;;5.13;;
59410;SDS011;45215;32.610;-115.482;2022-09-13T16:16:43;10.13;;;5.38;;
59410;SDS011;45215;32.610;-115.482;2022-09-13T16:19:17;11.18;;;5.35;;
59410;SDS011;45215;32.610;-115.482;2022-09-13T16:21:45;10.90;;;5.25;;
59410;SDS011;45215;32.610;-115.482;2022-09-13T16:24:12;7.13;;;4.50;;
59410;SDS011;45215;32.610;-115.482;2022-09-13T16:26:38;10.40;;;5.20;;
59410;SDS011;45215;32.610;-115.482;2022-09-13T16:29:05;10.27;;;4.95;;
59410;SDS011;45215;32.610;-115.482;2022-09-13T16:31:32;8.25;;;4.50;;
59410;SDS011;45215;32.610;-115.482;2022-09-13T16:33:58;8.57;;;4.78;;
59410;SDS011;45215;32.610;-115.482;2022-09-13T16:36:24;7.82;;;4.20;;
59410;SDS011;45215;32.610;-115.482;2022-09-13T16:38:55;6.82;;;4.53;;
59410;SDS011;45215;32.610;-115.482;2022-09-13T16:41:22;8.60;;;4.63;;
59410;SDS011;45215;32.610;-115.482;2022-09-13T16:43:48;8.52;;;4.55;;
59410;SDS011;45215;32.610;-115.482;2022-09-13T16:46:15;6.53;;;4.28;;
59410;SDS011;45215;32.610;-115.482;2022-09-13T16:48:42;9.55;;;4.50;;
59410;SDS011;45215;32.610;-115.482;2022-09-13T16:51:09;6.53;;;4.32;;
59410;SDS011;45215;32.610;-115.482;2022-09-13T16:53:37;7.43;;;4.22;;
59410;SDS011;45215;32.610;-115.482;2022-09-13T16:56:12;7.28;;;4.00;;
59410;SDS011;45215;32.610;-115.482;2022-09-13T16:58:41;7.88;;;4.10;;
59410;SDS011;45215;32.610;-115.482;2022-09-13T17:01:11;9.30;;;3.75;;
59410;SDS011;45215;32.610;-115.482;2022-09-13T17:03:39;8.65;;;4.20;;
59410;SDS011;45215;32.610;-115.482;2022-09-13T17:06:07;7.07;;;4.10;;
59410;SDS011;45215;32.610;-115.482;2022-09-13T17:08:35;6.45;;;3.67;;
59410;SDS011;45215;32.610;-115.482;2022-09-13T17:11:07;6.07;;;3.70;;
59410;SDS011;45215;32.610;-115.482;2022-09-13T17:13:36;6.72;;;3.55;;
59410;SDS011;45215;32.610;-115.482;2022-09-13T17:16:04;6.30;;;3.97;;
59410;SDS011;45215;32.610;-115.482;2022-09-13T17:18:32;7.40;;;3.95;;
59410;SDS011;45215;32.610;-115.482;2022-09-13T17:20:58;7.25;;;3.92;;
59410;SDS011;45215;32.610;-115.482;2022-09-13T17:23:25;6.25;;;3.30;;
59410;SDS011;45215;32.610;-115.482;2022-09-13T17:25:52;6.85;;;4.03;;
59410;SDS011;45215;32.610;-115.482;2022-09-13T17:28:18;7.18;;;3.70;;
59410;SDS011;45215;32.610;-115.482;2022-09-13T17:30:45;6.32;;;3.58;;
59410;SDS011;45215;32.610;-115.482;2022-09-13T17:33:12;5.82;;;3.47;;
59410;SDS011;45215;32.610;-115.482;2022-09-13T17:35:38;7.22;;;3.20;;
59410;SDS011;45215;32.610;-115.482;2022-09-13T17:38:04;8.57;;;3.58;;
59410;SDS011;45215;32.610;-115.482;2022-09-13T17:40:30;5.95;;;3.45;;
59410;SDS011;45215;32.610;-115.482;2022-09-13T17:42:57;6.50;;;3.38;;
59410;SDS011;45215;32.610;-115.482;2022-09-13T17:45:23;5.20;;;3.35;;
59410;SDS011;45215;32.610;-115.482;2022-09-13T17:47:53;5.30;;;3.10;;
59410;SDS011;45215;32.610;-115.482;2022-09-13T17:50:23;4.82;;;3.10;;
59410;SDS011;45215;32.610;-115.482;2022-09-13T17:52:49;5.03;;;3.15;;
59410;SDS011;45215;32.610;-115.482;2022-09-13T17:55:16;6.95;;;3.30;;
59410;SDS011;45215;32.610;-115.482;2022-09-13T17:57:42;5.22;;;2.95;;
59410;SDS011;45215;32.610;-115.482;2022-09-13T18:00:13;4.22;;;3.00;;
59410;SDS011;45215;32.610;-115.482;2022-09-13T18:02:42;4.93;;;2.78;;
59410;SDS011;45215;32.610;-115.482;2022-09-13T18:05:09;3.78;;;2.65;;
59410;SDS011;45215;32.610;-115.482;2022-09-13T18:07:35;4.05;;;2.80;;
59410;SDS011;45215;32.610;-115.482;2022-09-13T18:10:01;4.05;;;2.45;;
59410;SDS011;45215;32.610;-115.482;2022-09-13T18:12:27;5.35;;;2.97;;
59410;SDS011;45215;32.610;-115.482;2022-09-13T18:14:54;2.97;;;2.30;;
59410;SDS011;45215;32.610;-115.482;2022-09-13T18:17:20;3.83;;;2.70;;
59410;SDS011;45215;32.610;-115.482;2022-09-13T18:19:46;3.67;;;2.60;;